Latest Weather Observations for St Lawrence

IDQ60801

Issued at 11:32 pm EST Thursday 28 May 2015 (issued every 30 minutes, with the page automatically refreshed every 10 minutes)

About weather observations | Map of weather stations | Latest weather observations for QLD | Other Formats
Station Details ID: 033210 Name: ST LAWRENCE Lat: -22.35 Lon: 149.52 Height: 9.19 m
Data from the previous 72 hours. | See also: Recent months at St Lawrence
Date/Time
EST
Temp
°C
App
Temp
°C
Dew
Point
Rel
Hum
%
Delta-T
°C
Wind Press
QNH
hPa
Press
MSL
hPa
Rain
since 9 am
mm
Dir
 
Spd
km/h
Gust
km/h
Spd
kts
Gust
kts
28/11:30pm 17.0 17.9 15.2 89 1.0 S 4 7 2 4 1022.2 1022.2 0.0
28/11:00pm 17.2 18.0 14.8 86 1.4 SSW 4 6 2 3 1022.5 1022.5 0.0
28/10:30pm 18.0 19.9 15.8 87 1.3 CALM 0 0 0 0 1022.4 1022.4 0.0
28/10:00pm 18.5 19.9 15.4 82 1.8 S 2 6 1 3 1022.5 1022.5 0.0
28/09:30pm 19.6 21.7 16.3 81 2.0 CALM 0 0 0 0 1022.3 1022.3 0.0
28/09:00pm 20.7 22.1 16.5 77 2.5 SSE 4 6 2 3 1022.2 1022.2 0.0
28/08:30pm 21.6 22.6 16.8 74 2.9 E 7 11 4 6 1022.1 1022.1 0.0
28/08:00pm 22.3 23.3 16.8 71 3.3 ENE 7 13 4 7 1021.9 1021.9 0.0
28/07:30pm 22.6 22.7 16.6 69 3.7 ENE 11 19 6 10 1021.4 1021.4 0.0
28/07:00pm 22.8 22.9 16.4 67 3.9 NE 11 15 6 8 1021.0 1021.0 0.0
28/06:30pm 23.1 23.2 16.6 67 4.0 NE 11 19 6 10 1020.6 1020.6 0.0
28/06:00pm 22.9 23.5 17.8 73 3.2 NNE 11 15 6 8 1020.3 1020.3 0.0
28/05:30pm 23.5 22.4 17.3 68 3.8 NNE 19 24 10 13 1020.0 1020.0 0.0
28/05:00pm 24.7 24.2 16.9 62 4.8 NNE 15 20 8 11 1019.7 1019.7 0.0
28/04:30pm 25.2 24.8 16.1 57 5.6 NE 13 17 7 9 1019.4 1019.4 0.0
28/04:00pm 26.3 24.6 14.7 48 6.9 NE 17 24 9 13 1019.1 1019.1 0.0
28/03:30pm 26.7 25.6 15.4 50 6.9 NE 15 22 8 12 1019.1 1019.1 0.0
28/03:00pm 26.8 25.3 15.2 49 7.0 NE 17 26 9 14 1019.1 1019.1 0.0
28/02:30pm 27.5 26.5 15.5 48 7.3 NE 15 24 8 13 1019.2 1019.2 0.0
28/02:00pm 26.8 26.6 15.8 51 6.7 NE 11 20 6 11 1019.4 1019.4 0.0
28/01:30pm 26.4 25.8 14.5 48 7.1 E 11 15 6 8 1019.5 1019.5 0.0
28/01:00pm 27.5 27.6 15.5 48 7.3 ENE 9 19 5 10 1020.0 1020.0 0.0
28/12:30pm 26.6 25.8 14.0 46 7.5 E 11 17 6 9 1020.5 1020.5 0.0
28/12:00pm 25.4 25.1 15.4 54 6.0 E 11 17 6 9 1021.2 1021.2 0.0
28/11:30am 25.4 24.8 15.7 55 5.9 ENE 13 20 7 11 1021.4 1021.4 0.0
28/11:00am 25.9 26.7 17.3 59 5.4 E 9 17 5 9 1021.8 1021.8 0.0
28/10:30am 24.5 24.8 17.0 63 4.6 SE 11 19 6 10 1022.0 1022.0 0.0
28/10:00am 23.5 23.4 17.0 67 4.0 SSE 13 19 7 10 1022.5 1022.5 0.0
28/09:30am 22.3 22.3 17.2 73 3.1 SSE 13 17 7 9 1022.4 1022.4 0.0
28/09:00am 21.0 21.0 17.2 79 2.3 S 13 19 7 10 1022.4 1022.4 0.0
28/08:30am 19.7 19.3 17.1 85 1.6 S 15 22 8 12 1022.3 1022.3 0.0
28/08:00am 18.3 18.1 16.6 90 1.0 S 13 17 7 9 1022.2 1022.2 0.0
28/07:30am 17.3 17.3 16.3 94 0.6 S 11 13 6 7 1021.8 1021.8 0.0
28/07:00am 16.8 17.1 16.0 95 0.5 S 9 13 5 7 1021.4 1021.4 0.0
28/06:30am 16.6 16.5 16.0 96 0.4 S 11 15 6 8 1021.1 1021.1 0.0
28/06:00am 16.3 16.5 15.7 96 0.3 S 9 13 5 7 1020.7 1020.7 0.0
28/05:30am 14.7 14.8 13.9 95 0.4 S 6 7 3 4 1020.5 1020.5 0.0
28/05:00am 14.8 16.1 14.0 95 0.4 CALM 0 0 0 0 1020.4 1020.4 0.0
28/04:30am 14.5 14.8 13.5 94 0.6 SSW 4 7 2 4 1020.2 1020.2 0.0
28/04:00am 15.2 15.5 14.4 95 0.5 SSW 6 7 3 4 1020.0 1020.0 0.0
28/03:30am 14.8 14.9 13.8 94 0.6 SW 6 7 3 4 1020.1 1020.1 0.0
28/03:00am 15.0 15.1 14.0 94 0.6 SSW 6 7 3 4 1020.2 1020.2 0.0
28/02:30am 14.6 14.5 13.3 92 0.7 SSW 6 7 3 4 1020.3 1020.3 0.0
28/02:00am 15.6 15.9 14.5 93 0.6 SSW 6 7 3 4 1020.6 1020.6 0.0
28/01:30am 15.8 16.0 14.3 91 0.9 SW 6 6 3 3 1021.0 1021.0 0.0
28/01:00am 16.5 16.9 15.2 92 0.8 S 7 9 4 5 1021.0 1021.0 0.0
28/12:30am 16.1 16.5 14.8 92 0.7 SSW 6 7 3 4 1021.1 1021.1 0.0
28/12:00am 16.3 17.1 14.8 91 0.9 SW 4 7 2 4 1020.8 1020.8 0.0
 
Date/Time
EST
Temp
°C
App
Temp
°C
Dew
Point
Rel
Hum
%
Delta-T
°C
Wind Press
QNH
hPa
Press
MSL
hPa
Rain
since 9 am
mm
Dir
 
Spd
km/h
Gust
km/h
Spd
kts
Gust
kts
27/11:30pm 16.5 18.0 14.7 89 1.0 CALM 0 0 0 0 1020.8 1020.8 0.0
27/11:00pm 17.5 18.2 15.5 88 1.2 S 6 7 3 4 1021.4 1021.4 0.0
27/10:30pm 17.6 18.4 15.8 89 1.1 SW 6 7 3 4 1021.5 1021.5 0.0
27/10:00pm 18.0 19.1 14.7 81 1.9 SSE 2 6 1 3 1021.4 1021.4 0.0
27/09:30pm 19.5 21.1 16.0 80 2.1 SE 2 7 1 4 1021.4 1021.4 0.0
27/09:00pm 20.2 21.7 16.6 80 2.2 SE 4 7 2 4 1021.4 1021.4 0.0
27/08:30pm 20.7 22.3 16.9 79 2.3 ESE 4 7 2 4 1021.2 1021.2 0.0
27/08:00pm 21.3 22.3 16.9 76 2.7 E 7 11 4 6 1020.9 1020.9 0.0
27/07:30pm 22.2 22.5 17.1 73 3.1 NE 11 17 6 9 1020.5 1020.5 0.0
27/07:00pm 22.6 23.8 17.3 72 3.3 NNE 7 11 4 6 1020.3 1020.3 0.0
27/06:30pm 22.7 23.3 16.7 69 3.7 NNE 9 13 5 7 1020.2 1020.2 0.0
27/06:00pm 22.9 22.9 16.2 66 4.1 NNE 11 15 6 8 1019.9 1019.9 0.0
27/05:30pm 23.3 23.2 15.9 63 4.5 NNE 11 17 6 9 1019.7 1019.7 0.0
27/05:00pm 24.1 23.4 15.3 58 5.3 NE 13 20 7 11 1019.5 1019.5 0.0
27/04:30pm 24.6 23.7 15.8 58 5.3 NE 15 19 8 10 1019.2 1019.2 0.0
27/04:00pm 25.5 23.8 14.6 51 6.5 NE 17 24 9 13 1018.8 1018.8 0.0
27/03:30pm 26.4 24.7 14.8 49 7.0 NE 17 22 9 12 1018.7 1018.7 0.0
27/03:00pm 26.4 24.5 14.2 47 7.2 NNE 17 24 9 13 1018.8 1018.8 0.0
27/02:30pm 27.1 26.1 14.5 46 7.6 NE 13 22 7 12 1018.8 1018.8 0.0
27/02:00pm 26.2 25.9 14.3 48 7.1 ENE 9 15 5 8 1019.2 1019.2 0.0
27/01:30pm 26.2 25.8 14.0 47 7.2 ESE 9 15 5 8 1019.4 1019.4 0.0
27/01:00pm 27.2 25.9 14.9 47 7.4 NE 15 22 8 12 1019.6 1019.6 0.0
27/12:30pm 26.0 25.1 14.8 50 6.7 ENE 13 22 7 12 1020.4 1020.4 0.0
27/12:00pm 25.0 24.0 14.5 52 6.2 ESE 13 24 7 13 1021.1 1021.1 0.0
27/11:30am 25.8 25.5 15.5 53 6.2 SSE 11 17 6 9 1021.7 1021.7 0.0
27/11:00am 25.3 24.7 15.6 55 5.9 E 13 20 7 11 1022.2 1022.2 0.0
27/10:30am 24.5 24.9 16.2 60 5.1 ESE 9 17 5 9 1022.5 1022.5 0.0
27/10:00am 22.9 22.7 15.7 64 4.3 SE 11 17 6 9 1022.7 1022.7 0.0
27/09:30am 22.0 22.1 15.6 67 3.8 SSE 9 15 5 8 1023.1 1023.1 0.0
27/09:00am 20.7 20.3 15.3 71 3.2 S 11 17 6 9 1023.0 1023.0 0.0
27/08:30am 19.4 18.5 14.9 75 2.6 S 13 19 7 10 1022.8 1022.8 0.0
27/08:00am 18.0 17.9 14.9 82 1.8 S 9 19 5 10 1022.8 1022.8 0.0
27/07:30am 15.8 16.1 14.5 92 0.7 SSW 6 9 3 5 1022.7 1022.7 0.0
27/07:00am 13.6 13.7 12.7 94 0.5 SW 4 7 2 4 1022.4 1022.4 0.0
27/06:30am 13.4 13.0 12.5 94 0.5 SW 6 7 3 4 1022.2 1022.2 0.0
27/06:00am 13.4 12.9 12.1 92 0.7 S 6 7 3 4 1021.6 1021.6 0.0
27/05:30am 14.7 14.5 13.7 94 0.6 S 7 11 4 6 1021.5 1021.5 0.0
27/05:00am 13.5 13.1 12.4 93 0.6 SSW 6 7 3 4 1021.2 1021.2 0.0
27/04:30am 13.7 13.3 12.3 91 0.8 S 6 7 3 4 1021.1 1021.1 0.0
27/04:00am 14.6 14.5 13.3 92 0.7 S 6 9 3 5 1021.1 1021.1 0.0
27/03:30am 14.7 14.4 13.2 91 0.8 S 7 9 4 5 1021.1 1021.1 0.0
27/03:00am 14.6 14.4 13.1 91 0.8 SW 6 7 3 4 1021.1 1021.1 0.0
27/02:30am 14.6 14.3 12.8 89 1.0 SSW 6 7 3 4 1021.1 1021.1 0.0
27/02:00am 15.2 15.1 13.2 88 1.1 SSW 6 7 3 4 1021.5 1021.5 0.0
27/01:30am 15.0 14.5 12.1 83 1.6 SSW 6 7 3 4 1022.0 1022.0 0.0
27/01:00am 16.0 16.1 13.8 87 1.2 S 6 7 3 4 1022.1 1022.1 0.0
27/12:30am 16.1 16.0 13.8 86 1.3 S 7 9 4 5 1022.4 1022.4 0.0
27/12:00am 15.3 15.8 12.8 85 1.4 SSW 2 6 1 3 1022.2 1022.2 0.0
 
Date/Time
EST
Temp
°C
App
Temp
°C
Dew
Point
Rel
Hum
%
Delta-T
°C
Wind Press
QNH
hPa
Press
MSL
hPa
Rain
since 9 am
mm
Dir
 
Spd
km/h
Gust
km/h
Spd
kts
Gust
kts
26/11:30pm 15.8 16.7 12.9 83 1.6 CALM 0 0 0 0 1022.4 1022.4 0.0
26/11:00pm 16.9 17.6 13.4 80 2.0 S 2 6 1 3 1022.6 1022.6 0.0
26/10:30pm 17.3 17.4 13.8 80 2.0 S 6 7 3 4 1023.0 1023.0 0.0
26/10:00pm 17.0 17.4 13.7 81 1.9 SSW 4 7 2 4 1023.4 1023.4 0.0
26/09:30pm 18.2 18.2 13.5 74 2.7 SSW 6 7 3 4 1023.3 1023.3 0.0
26/09:00pm 19.9 20.2 14.5 71 3.1 SSE 6 7 3 4 1023.4 1023.4 0.0
26/08:30pm 20.1 21.2 13.6 66 3.7 CALM 0 2 0 1 1023.5 1023.5 0.0
26/08:00pm 21.6 21.6 14.3 63 4.2 SE 7 13 4 7 1023.3 1023.3 0.0
26/07:30pm 22.0 21.3 14.4 62 4.5 SE 11 17 6 9 1023.1 1023.1 0.0
26/07:00pm 22.3 22.1 14.7 62 4.5 ESE 9 15 5 8 1022.8 1022.8 0.0
26/06:30pm 22.0 23.4 16.3 70 3.5 E 4 7 2 4 1022.3 1022.3 0.0
26/06:00pm 22.6 23.4 16.4 68 3.8 NE 7 9 4 5 1021.6 1021.6 0.0
26/05:30pm 23.3 23.1 15.6 62 4.6 ENE 11 17 6 9 1021.4 1021.4 0.0
26/05:00pm 24.4 24.2 14.8 55 5.7 ENE 9 17 5 9 1021.1 1021.1 0.0
26/04:30pm 24.9 23.7 14.1 51 6.4 ENE 13 22 7 12 1020.8 1020.8 0.0
26/04:00pm 25.4 24.8 14.5 51 6.5 E 11 17 6 9 1020.7 1020.7 0.0
26/03:30pm 25.5 24.9 14.6 51 6.5 E 11 22 6 12 1020.6 1020.6 0.0
26/03:00pm 25.4 24.7 14.2 50 6.6 E 11 19 6 10 1020.7 1020.7 0.0
26/02:30pm 25.4 24.1 13.6 48 6.9 ESE 13 20 7 11 1020.7 1020.7 0.0
26/02:00pm 26.4 24.8 12.8 43 7.9 SE 13 22 7 12 1021.2 1021.2 0.0
26/01:30pm 26.0 24.8 14.1 47 7.1 ESE 13 20 7 11 1021.6 1021.6 0.0
26/01:00pm 24.9 23.0 14.1 51 6.4 ESE 17 26 9 14 1022.1 1022.1 0.0
26/12:30pm 25.6 25.7 14.4 50 6.7 E 7 13 4 7 1022.7 1022.7 0.0
26/12:00pm 24.9 24.1 15.0 54 5.9 SE 13 20 7 11 1023.3 1023.3 0.0
26/11:30am 24.3 23.2 14.4 54 5.9 ESE 13 24 7 13 1024.0 1024.0 0.0
26/11:00am 24.2 23.5 14.3 54 5.8 SSE 11 19 6 10 1024.5 1024.5 0.0
26/10:30am 24.3 22.9 14.4 54 5.9 SE 15 22 8 12 1024.7 1024.7 0.0
26/10:00am 23.4 22.8 14.7 58 5.1 S 11 17 6 9 1025.2 1025.2 0.0
26/09:30am 22.3 21.5 15.2 64 4.2 S 13 20 7 11 1025.5 1025.5 0.0
26/09:00am 20.9 20.5 15.2 70 3.4 SSE 11 20 6 11 1025.5 1025.5 0.2
26/08:30am 19.4 19.9 15.5 78 2.3 SSE 7 13 4 7 1025.3 1025.3 0.2
26/08:00am 18.2 17.8 15.1 82 1.8 S 11 19 6 10 1025.3 1025.3 0.2
26/07:30am 17.5 16.7 15.1 86 1.4 S 13 20 7 11 1025.3 1025.3 0.2
26/07:00am 16.7 16.1 14.5 87 1.3 S 11 15 6 8 1025.4 1025.4 0.2
26/06:30am 16.6 15.9 14.2 86 1.4 S 11 15 6 8 1025.3 1025.3 0.2
26/06:00am 16.7 15.6 14.3 86 1.4 S 13 19 7 10 1025.2 1025.2 0.2
26/05:30am 16.2 15.5 14.2 88 1.1 S 11 17 6 9 1024.9 1024.9 0.2
26/05:00am 16.0 15.2 14.0 88 1.1 S 11 15 6 8 1024.8 1024.8 0.2
26/04:30am 15.9 15.5 14.1 89 1.0 S 9 11 5 6 1024.7 1024.7 0.2
26/04:00am 16.1 15.7 14.1 88 1.1 S 9 17 5 9 1024.6 1024.6 0.2
26/03:30am 16.0 15.6 14.0 88 1.1 S 9 13 5 7 1024.8 1024.8 0.2
26/03:00am 16.1 15.6 13.9 87 1.2 S 9 11 5 6 1024.9 1024.9 0.2
26/02:30am 16.3 15.5 14.0 86 1.3 S 11 15 6 8 1024.6 1024.6 0.2
26/02:00am 16.5 15.8 14.2 86 1.3 S 11 15 6 8 1024.8 1024.8 0.2
26/01:30am 16.6 15.8 14.1 85 1.4 S 11 13 6 7 1025.1 1025.1 0.2
26/01:00am 16.9 16.6 14.4 85 1.4 S 9 13 5 7 1025.2 1025.2 0.2
26/12:30am 17.1 16.9 14.7 86 1.4 S 9 13 5 7 1025.3 1025.3 0.2
26/12:00am 17.0 16.7 14.5 85 1.4 S 9 11 5 6 1025.2 1025.2 0.2

Other Formats:

Comma delimited format used in spreadsheet applications
http://www.bom.gov.au/fwo/IDQ60801/IDQ60801.95369.axf

JavaScript Object Notation format (JSON) in row-major order
http://www.bom.gov.au/fwo/IDQ60801/IDQ60801.95369.json